sensor_id;sensor_type;location;lat;lon;timestamp;temperature;humidity
21906;DHT22;11117;48.644;9.006;2024-02-04T00:00:29;8.00;99.90
21906;DHT22;11117;48.644;9.006;2024-02-04T00:02:54;8.00;99.90
21906;DHT22;11117;48.644;9.006;2024-02-04T00:05:20;8.00;99.90
21906;DHT22;11117;48.644;9.006;2024-02-04T00:07:46;8.00;99.90
21906;DHT22;11117;48.644;9.006;2024-02-04T00:10:11;8.00;99.90
21906;DHT22;11117;48.644;9.006;2024-02-04T00:12:37;8.00;99.90
21906;DHT22;11117;48.644;9.006;2024-02-04T00:15:03;8.00;99.90
21906;DHT22;11117;48.644;9.006;2024-02-04T00:17:29;7.90;99.90
21906;DHT22;11117;48.644;9.006;2024-02-04T00:19:55;7.80;99.90
21906;DHT22;11117;48.644;9.006;2024-02-04T00:22:20;7.80;99.90
21906;DHT22;11117;48.644;9.006;2024-02-04T00:24:46;7.80;99.90
21906;DHT22;11117;48.644;9.006;2024-02-04T00:27:11;7.90;99.90
21906;DHT22;11117;48.644;9.006;2024-02-04T00:29:37;7.90;99.90
21906;DHT22;11117;48.644;9.006;2024-02-04T00:32:03;8.00;99.90
21906;DHT22;11117;48.644;9.006;2024-02-04T00:34:28;8.00;99.90
21906;DHT22;11117;48.644;9.006;2024-02-04T00:36:54;7.80;99.90
21906;DHT22;11117;48.644;9.006;2024-02-04T00:39:19;7.80;99.90
21906;DHT22;11117;48.644;9.006;2024-02-04T00:41:45;7.80;99.90
21906;DHT22;11117;48.644;9.006;2024-02-04T00:44:10;7.80;99.90
21906;DHT22;11117;48.644;9.006;2024-02-04T00:46:36;7.70;99.90
21906;DHT22;11117;48.644;9.006;2024-02-04T00:49:02;7.90;99.90
21906;DHT22;11117;48.644;9.006;2024-02-04T00:51:27;7.90;99.90
21906;DHT22;11117;48.644;9.006;2024-02-04T00:53:53;8.00;99.90
21906;DHT22;11117;48.644;9.006;2024-02-04T00:56:18;8.00;99.90
21906;DHT22;11117;48.644;9.006;2024-02-04T00:58:44;8.00;99.90
21906;DHT22;11117;48.644;9.006;2024-02-04T01:01:09;8.10;99.90
21906;DHT22;11117;48.644;9.006;2024-02-04T01:03:35;8.20;99.90
21906;DHT22;11117;48.644;9.006;2024-02-04T01:06:00;8.20;99.90
21906;DHT22;11117;48.644;9.006;2024-02-04T01:08:26;8.20;99.90
21906;DHT22;11117;48.644;9.006;2024-02-04T01:10:51;8.10;99.90
21906;DHT22;11117;48.644;9.006;2024-02-04T01:13:17;8.00;99.90
21906;DHT22;11117;48.644;9.006;2024-02-04T01:15:43;7.60;99.90
21906;DHT22;11117;48.644;9.006;2024-02-04T01:18:09;7.50;99.90
21906;DHT22;11117;48.644;9.006;2024-02-04T01:20:35;7.40;99.90
21906;DHT22;11117;48.644;9.006;2024-02-04T01:23:00;7.30;99.90
21906;DHT22;11117;48.644;9.006;2024-02-04T01:25:26;7.10;99.90
21906;DHT22;11117;48.644;9.006;2024-02-04T01:27:51;6.90;99.90
21906;DHT22;11117;48.644;9.006;2024-02-04T01:30:17;6.90;99.90
21906;DHT22;11117;48.644;9.006;2024-02-04T01:32:42;6.90;99.90
21906;DHT22;11117;48.644;9.006;2024-02-04T01:35:08;6.90;99.90
21906;DHT22;11117;48.644;9.006;2024-02-04T01:37:34;6.90;99.90
21906;DHT22;11117;48.644;9.006;2024-02-04T01:39:59;7.10;99.90
21906;DHT22;11117;48.644;9.006;2024-02-04T01:42:25;7.10;99.90
21906;DHT22;11117;48.644;9.006;2024-02-04T01:44:50;7.20;99.90
21906;DHT22;11117;48.644;9.006;2024-02-04T01:47:16;7.30;99.90
21906;DHT22;11117;48.644;9.006;2024-02-04T01:49:44;7.30;99.90
21906;DHT22;11117;48.644;9.006;2024-02-04T01:52:10;7.20;99.90
21906;DHT22;11117;48.644;9.006;2024-02-04T01:54:37;6.80;99.90
21906;DHT22;11117;48.644;9.006;2024-02-04T01:57:06;6.60;99.90
21906;DHT22;11117;48.644;9.006;2024-02-04T01:59:32;6.50;99.90
21906;DHT22;11117;48.644;9.006;2024-02-04T02:02:01;6.40;99.90
21906;DHT22;11117;48.644;9.006;2024-02-04T02:04:26;6.30;99.90
21906;DHT22;11117;48.644;9.006;2024-02-04T02:06:55;6.20;99.90
21906;DHT22;11117;48.644;9.006;2024-02-04T02:09:21;6.20;99.90
21906;DHT22;11117;48.644;9.006;2024-02-04T02:11:55;6.20;99.90
21906;DHT22;11117;48.644;9.006;2024-02-04T02:14:27;6.20;99.90
21906;DHT22;11117;48.644;9.006;2024-02-04T02:16:57;6.20;99.90
21906;DHT22;11117;48.644;9.006;2024-02-04T02:19:44;6.30;99.90
21906;DHT22;11117;48.644;9.006;2024-02-04T02:24:47;6.40;99.90
21906;DHT22;11117;48.644;9.006;2024-02-04T02:27:12;6.50;99.90
21906;DHT22;11117;48.644;9.006;2024-02-04T02:29:39;6.50;99.90
21906;DHT22;11117;48.644;9.006;2024-02-04T02:32:05;6.60;99.90
21906;DHT22;11117;48.644;9.006;2024-02-04T02:34:30;6.70;99.90
21906;DHT22;11117;48.644;9.006;2024-02-04T02:36:59;6.80;99.90
21906;DHT22;11117;48.644;9.006;2024-02-04T02:39:32;6.90;99.90
21906;DHT22;11117;48.644;9.006;2024-02-04T02:42:01;6.70;99.90
21906;DHT22;11117;48.644;9.006;2024-02-04T02:44:27;6.60;99.90
21906;DHT22;11117;48.644;9.006;2024-02-04T02:46:55;6.40;99.90
21906;DHT22;11117;48.644;9.006;2024-02-04T02:49:21;6.40;99.90
21906;DHT22;11117;48.644;9.006;2024-02-04T02:51:47;6.30;99.90
21906;DHT22;11117;48.644;9.006;2024-02-04T02:54:12;6.30;99.90
21906;DHT22;11117;48.644;9.006;2024-02-04T02:56:38;6.30;99.90
21906;DHT22;11117;48.644;9.006;2024-02-04T02:59:03;6.30;99.90
21906;DHT22;11117;48.644;9.006;2024-02-04T03:01:30;6.30;99.90
21906;DHT22;11117;48.644;9.006;2024-02-04T03:03:55;6.20;99.90
21906;DHT22;11117;48.644;9.006;2024-02-04T03:06:21;6.20;99.90
21906;DHT22;11117;48.644;9.006;2024-02-04T03:08:46;6.20;99.90
21906;DHT22;11117;48.644;9.006;2024-02-04T03:11:12;6.20;99.90
21906;DHT22;11117;48.644;9.006;2024-02-04T03:13:38;6.30;99.90
21906;DHT22;11117;48.644;9.006;2024-02-04T03:16:09;6.30;99.90
21906;DHT22;11117;48.644;9.006;2024-02-04T03:18:35;6.30;99.90
21906;DHT22;11117;48.644;9.006;2024-02-04T03:21:00;6.30;99.90
21906;DHT22;11117;48.644;9.006;2024-02-04T03:23:26;6.30;99.90
21906;DHT22;11117;48.644;9.006;2024-02-04T03:25:52;6.30;99.90
21906;DHT22;11117;48.644;9.006;2024-02-04T03:28:17;6.30;99.90
21906;DHT22;11117;48.644;9.006;2024-02-04T03:30:43;6.30;99.90
21906;DHT22;11117;48.644;9.006;2024-02-04T03:33:08;6.40;99.90
21906;DHT22;11117;48.644;9.006;2024-02-04T03:35:34;6.30;99.90
21906;DHT22;11117;48.644;9.006;2024-02-04T03:37:59;6.40;99.90
21906;DHT22;11117;48.644;9.006;2024-02-04T03:40:25;6.40;99.90
21906;DHT22;11117;48.644;9.006;2024-02-04T03:42:50;6.50;99.90
21906;DHT22;11117;48.644;9.006;2024-02-04T03:45:16;6.60;99.90
21906;DHT22;11117;48.644;9.006;2024-02-04T03:47:41;6.70;99.90
21906;DHT22;11117;48.644;9.006;2024-02-04T03:50:07;6.80;99.90
21906;DHT22;11117;48.644;9.006;2024-02-04T03:52:33;6.80;99.90
21906;DHT22;11117;48.644;9.006;2024-02-04T03:54:59;6.90;99.90
21906;DHT22;11117;48.644;9.006;2024-02-04T03:57:24;7.00;99.90
21906;DHT22;11117;48.644;9.006;2024-02-04T03:59:50;6.90;99.90
21906;DHT22;11117;48.644;9.006;2024-02-04T04:02:15;7.10;99.90
21906;DHT22;11117;48.644;9.006;2024-02-04T04:04:44;6.90;99.90
21906;DHT22;11117;48.644;9.006;2024-02-04T04:07:10;6.90;99.90
21906;DHT22;11117;48.644;9.006;2024-02-04T04:09:35;6.90;99.90
21906;DHT22;11117;48.644;9.006;2024-02-04T04:12:01;6.80;99.90
21906;DHT22;11117;48.644;9.006;2024-02-04T04:14:26;6.70;99.90
21906;DHT22;11117;48.644;9.006;2024-02-04T04:16:52;6.60;99.90
21906;DHT22;11117;48.644;9.006;2024-02-04T04:19:17;6.50;99.90
21906;DHT22;11117;48.644;9.006;2024-02-04T04:21:43;6.50;99.90
21906;DHT22;11117;48.644;9.006;2024-02-04T04:24:08;6.40;99.90
21906;DHT22;11117;48.644;9.006;2024-02-04T04:26:34;6.40;99.90
21906;DHT22;11117;48.644;9.006;2024-02-04T04:29:00;6.30;99.90
21906;DHT22;11117;48.644;9.006;2024-02-04T04:31:25;6.30;99.90
21906;DHT22;11117;48.644;9.006;2024-02-04T04:33:51;6.20;99.90
21906;DHT22;11117;48.644;9.006;2024-02-04T04:36:16;6.30;99.90
21906;DHT22;11117;48.644;9.006;2024-02-04T04:38:42;6.20;99.90
21906;DHT22;11117;48.644;9.006;2024-02-04T04:41:07;6.20;99.90
21906;DHT22;11117;48.644;9.006;2024-02-04T04:43:33;6.20;99.90
21906;DHT22;11117;48.644;9.006;2024-02-04T04:46:01;6.10;99.90
21906;DHT22;11117;48.644;9.006;2024-02-04T04:48:27;6.20;99.90
21906;DHT22;11117;48.644;9.006;2024-02-04T04:50:52;6.00;99.90
21906;DHT22;11117;48.644;9.006;2024-02-04T04:53:18;6.10;99.90
21906;DHT22;11117;48.644;9.006;2024-02-04T04:55:43;6.00;99.90
21906;DHT22;11117;48.644;9.006;2024-02-04T04:58:09;6.10;99.90
21906;DHT22;11117;48.644;9.006;2024-02-04T05:00:35;6.00;99.90
21906;DHT22;11117;48.644;9.006;2024-02-04T05:03:00;6.00;99.90
21906;DHT22;11117;48.644;9.006;2024-02-04T05:05:26;6.00;99.90
21906;DHT22;11117;48.644;9.006;2024-02-04T05:07:51;6.00;99.90
21906;DHT22;11117;48.644;9.006;2024-02-04T05:10:17;6.00;99.90
21906;DHT22;11117;48.644;9.006;2024-02-04T05:12:42;6.00;99.90
21906;DHT22;11117;48.644;9.006;2024-02-04T05:15:08;6.00;99.90
21906;DHT22;11117;48.644;9.006;2024-02-04T05:17:34;5.90;99.90
21906;DHT22;11117;48.644;9.006;2024-02-04T05:20:00;5.90;99.90
21906;DHT22;11117;48.644;9.006;2024-02-04T05:22:25;6.00;99.90
21906;DHT22;11117;48.644;9.006;2024-02-04T05:24:51;6.00;99.90
21906;DHT22;11117;48.644;9.006;2024-02-04T05:27:16;6.00;99.90
21906;DHT22;11117;48.644;9.006;2024-02-04T05:29:44;6.00;99.90
21906;DHT22;11117;48.644;9.006;2024-02-04T05:32:10;6.00;99.90
21906;DHT22;11117;48.644;9.006;2024-02-04T05:34:37;6.10;99.90
21906;DHT22;11117;48.644;9.006;2024-02-04T05:37:03;6.10;99.90
21906;DHT22;11117;48.644;9.006;2024-02-04T05:39:28;6.00;99.90
21906;DHT22;11117;48.644;9.006;2024-02-04T05:41:54;6.00;99.90
21906;DHT22;11117;48.644;9.006;2024-02-04T05:44:20;6.00;99.90
21906;DHT22;11117;48.644;9.006;2024-02-04T05:46:45;6.00;99.90
21906;DHT22;11117;48.644;9.006;2024-02-04T05:49:11;6.10;99.90
21906;DHT22;11117;48.644;9.006;2024-02-04T05:51:40;6.10;99.90
21906;DHT22;11117;48.644;9.006;2024-02-04T05:54:06;6.10;99.90
21906;DHT22;11117;48.644;9.006;2024-02-04T05:56:32;6.10;99.90
21906;DHT22;11117;48.644;9.006;2024-02-04T05:58:58;6.10;99.90
21906;DHT22;11117;48.644;9.006;2024-02-04T06:01:24;6.10;99.90
21906;DHT22;11117;48.644;9.006;2024-02-04T06:03:49;6.10;99.90
21906;DHT22;11117;48.644;9.006;2024-02-04T06:06:15;6.10;99.90
21906;DHT22;11117;48.644;9.006;2024-02-04T06:08:42;6.10;99.90
21906;DHT22;11117;48.644;9.006;2024-02-04T06:11:11;6.10;99.90
21906;DHT22;11117;48.644;9.006;2024-02-04T06:13:40;6.10;99.90
21906;DHT22;11117;48.644;9.006;2024-02-04T06:16:06;6.20;99.90
21906;DHT22;11117;48.644;9.006;2024-02-04T06:18:32;6.20;99.90
21906;DHT22;11117;48.644;9.006;2024-02-04T06:20:57;6.20;99.90
21906;DHT22;11117;48.644;9.006;2024-02-04T06:23:23;6.10;99.90
21906;DHT22;11117;48.644;9.006;2024-02-04T06:25:48;6.00;99.90
21906;DHT22;11117;48.644;9.006;2024-02-04T06:28:14;6.00;99.90
21906;DHT22;11117;48.644;9.006;2024-02-04T06:30:39;6.00;99.90
21906;DHT22;11117;48.644;9.006;2024-02-04T06:33:05;6.00;99.90
21906;DHT22;11117;48.644;9.006;2024-02-04T06:35:32;6.10;99.90
21906;DHT22;11117;48.644;9.006;2024-02-04T06:37:57;6.00;99.90
21906;DHT22;11117;48.644;9.006;2024-02-04T06:40:23;6.10;99.90
21906;DHT22;11117;48.644;9.006;2024-02-04T06:42:48;6.00;99.90
21906;DHT22;11117;48.644;9.006;2024-02-04T06:45:14;6.10;99.90
21906;DHT22;11117;48.644;9.006;2024-02-04T06:47:43;6.10;99.90
21906;DHT22;11117;48.644;9.006;2024-02-04T06:50:09;6.10;99.90
21906;DHT22;11117;48.644;9.006;2024-02-04T06:52:34;6.00;99.90
21906;DHT22;11117;48.644;9.006;2024-02-04T06:55:00;6.00;99.90
21906;DHT22;11117;48.644;9.006;2024-02-04T06:57:25;6.00;99.90
21906;DHT22;11117;48.644;9.006;2024-02-04T06:59:51;6.00;99.90
21906;DHT22;11117;48.644;9.006;2024-02-04T07:02:16;6.00;99.90
21906;DHT22;11117;48.644;9.006;2024-02-04T07:04:44;6.00;99.90
21906;DHT22;11117;48.644;9.006;2024-02-04T07:07:10;6.00;99.90
21906;DHT22;11117;48.644;9.006;2024-02-04T07:09:35;6.00;99.90
21906;DHT22;11117;48.644;9.006;2024-02-04T07:12:01;6.00;99.90
21906;DHT22;11117;48.644;9.006;2024-02-04T07:14:26;6.00;99.90
21906;DHT22;11117;48.644;9.006;2024-02-04T07:16:52;6.00;99.90
21906;DHT22;11117;48.644;9.006;2024-02-04T07:19:17;5.90;99.90
21906;DHT22;11117;48.644;9.006;2024-02-04T07:21:43;6.00;99.90
21906;DHT22;11117;48.644;9.006;2024-02-04T07:24:08;5.90;99.90
21906;DHT22;11117;48.644;9.006;2024-02-04T07:26:34;6.00;99.90
21906;DHT22;11117;48.644;9.006;2024-02-04T07:28:59;6.00;99.90
21906;DHT22;11117;48.644;9.006;2024-02-04T07:31:25;6.00;99.90
21906;DHT22;11117;48.644;9.006;2024-02-04T07:33:50;6.10;99.90
21906;DHT22;11117;48.644;9.006;2024-02-04T07:36:16;6.20;99.90
21906;DHT22;11117;48.644;9.006;2024-02-04T07:38:41;6.30;99.90
21906;DHT22;11117;48.644;9.006;2024-02-04T07:41:07;6.40;99.90
21906;DHT22;11117;48.644;9.006;2024-02-04T07:43:33;6.50;99.90
21906;DHT22;11117;48.644;9.006;2024-02-04T07:45:58;6.70;99.90
21906;DHT22;11117;48.644;9.006;2024-02-04T07:48:24;6.80;99.90
21906;DHT22;11117;48.644;9.006;2024-02-04T07:50:49;6.90;99.90
21906;DHT22;11117;48.644;9.006;2024-02-04T07:53:15;6.90;99.90
21906;DHT22;11117;48.644;9.006;2024-02-04T07:55:40;7.00;99.90
21906;DHT22;11117;48.644;9.006;2024-02-04T07:58:06;7.20;99.90
21906;DHT22;11117;48.644;9.006;2024-02-04T08:00:31;7.20;99.90
21906;DHT22;11117;48.644;9.006;2024-02-04T08:02:57;7.30;99.90
21906;DHT22;11117;48.644;9.006;2024-02-04T08:05:22;7.40;99.90
21906;DHT22;11117;48.644;9.006;2024-02-04T08:07:48;7.60;99.90
21906;DHT22;11117;48.644;9.006;2024-02-04T08:10:14;7.70;99.90
21906;DHT22;11117;48.644;9.006;2024-02-04T08:12:39;8.00;99.90
21906;DHT22;11117;48.644;9.006;2024-02-04T08:15:05;8.20;99.90
21906;DHT22;11117;48.644;9.006;2024-02-04T08:17:31;8.20;99.90
21906;DHT22;11117;48.644;9.006;2024-02-04T08:19:57;8.10;99.90
21906;DHT22;11117;48.644;9.006;2024-02-04T08:22:22;8.00;99.90
21906;DHT22;11117;48.644;9.006;2024-02-04T08:24:48;8.10;99.90
21906;DHT22;11117;48.644;9.006;2024-02-04T08:27:13;8.20;99.90
21906;DHT22;11117;48.644;9.006;2024-02-04T08:29:42;8.40;99.90
21906;DHT22;11117;48.644;9.006;2024-02-04T08:32:07;8.20;99.90
21906;DHT22;11117;48.644;9.006;2024-02-04T08:34:33;8.30;99.90
21906;DHT22;11117;48.644;9.006;2024-02-04T08:36:58;8.20;99.90
21906;DHT22;11117;48.644;9.006;2024-02-04T08:39:24;8.40;99.90
21906;DHT22;11117;48.644;9.006;2024-02-04T08:41:49;8.70;99.90
21906;DHT22;11117;48.644;9.006;2024-02-04T08:44:15;8.80;99.90
21906;DHT22;11117;48.644;9.006;2024-02-04T08:46:41;8.40;99.90
21906;DHT22;11117;48.644;9.006;2024-02-04T08:49:06;8.70;99.90
21906;DHT22;11117;48.644;9.006;2024-02-04T08:51:32;8.50;99.90
21906;DHT22;11117;48.644;9.006;2024-02-04T08:53:57;8.40;99.90
21906;DHT22;11117;48.644;9.006;2024-02-04T08:56:23;8.40;99.90
21906;DHT22;11117;48.644;9.006;2024-02-04T08:58:48;8.30;99.90
21906;DHT22;11117;48.644;9.006;2024-02-04T09:01:14;8.30;99.90
21906;DHT22;11117;48.644;9.006;2024-02-04T09:03:39;8.10;99.90
21906;DHT22;11117;48.644;9.006;2024-02-04T09:06:05;8.00;99.90
21906;DHT22;11117;48.644;9.006;2024-02-04T09:08:31;8.00;99.90
21906;DHT22;11117;48.644;9.006;2024-02-04T09:10:56;8.00;99.90
21906;DHT22;11117;48.644;9.006;2024-02-04T09:13:22;8.00;99.90
21906;DHT22;11117;48.644;9.006;2024-02-04T09:15:50;7.90;99.90
21906;DHT22;11117;48.644;9.006;2024-02-04T09:18:15;7.90;99.90
21906;DHT22;11117;48.644;9.006;2024-02-04T09:20:41;7.90;99.90
21906;DHT22;11117;48.644;9.006;2024-02-04T09:23:09;7.90;99.90
21906;DHT22;11117;48.644;9.006;2024-02-04T09:25:34;7.90;99.90
21906;DHT22;11117;48.644;9.006;2024-02-04T09:28:00;7.90;99.90
21906;DHT22;11117;48.644;9.006;2024-02-04T09:30:26;7.90;99.90
21906;DHT22;11117;48.644;9.006;2024-02-04T09:32:51;7.90;99.90
21906;DHT22;11117;48.644;9.006;2024-02-04T09:35:17;7.80;99.90
21906;DHT22;11117;48.644;9.006;2024-02-04T09:37:42;7.90;99.90
21906;DHT22;11117;48.644;9.006;2024-02-04T09:40:08;7.90;99.90
21906;DHT22;11117;48.644;9.006;2024-02-04T09:42:34;7.90;99.90
21906;DHT22;11117;48.644;9.006;2024-02-04T09:45:00;7.90;99.90
21906;DHT22;11117;48.644;9.006;2024-02-04T09:47:25;8.10;99.90
21906;DHT22;11117;48.644;9.006;2024-02-04T09:49:52;8.20;99.90
21906;DHT22;11117;48.644;9.006;2024-02-04T09:52:19;8.30;99.90
21906;DHT22;11117;48.644;9.006;2024-02-04T09:54:52;8.30;99.90
21906;DHT22;11117;48.644;9.006;2024-02-04T09:57:21;8.40;99.90
21906;DHT22;11117;48.644;9.006;2024-02-04T09:59:47;8.50;99.90
21906;DHT22;11117;48.644;9.006;2024-02-04T10:02:13;8.50;99.90
21906;DHT22;11117;48.644;9.006;2024-02-04T10:04:41;8.40;99.90
21906;DHT22;11117;48.644;9.006;2024-02-04T10:07:07;8.50;99.90
21906;DHT22;11117;48.644;9.006;2024-02-04T10:09:32;8.60;99.90
21906;DHT22;11117;48.644;9.006;2024-02-04T10:11:58;8.60;99.90
21906;DHT22;11117;48.644;9.006;2024-02-04T10:14:24;8.80;99.90
21906;DHT22;11117;48.644;9.006;2024-02-04T10:16:50;8.80;99.90
21906;DHT22;11117;48.644;9.006;2024-02-04T10:19:15;8.70;99.90
21906;DHT22;11117;48.644;9.006;2024-02-04T10:21:41;8.70;99.90
21906;DHT22;11117;48.644;9.006;2024-02-04T10:24:07;8.90;99.90
21906;DHT22;11117;48.644;9.006;2024-02-04T10:26:33;9.10;99.90
21906;DHT22;11117;48.644;9.006;2024-02-04T10:28:58;9.30;99.90
21906;DHT22;11117;48.644;9.006;2024-02-04T10:31:25;9.40;99.90
21906;DHT22;11117;48.644;9.006;2024-02-04T10:33:51;9.40;99.90
21906;DHT22;11117;48.644;9.006;2024-02-04T10:36:17;9.40;99.90
21906;DHT22;11117;48.644;9.006;2024-02-04T10:38:42;9.60;99.90
21906;DHT22;11117;48.644;9.006;2024-02-04T10:41:14;9.60;99.90
21906;DHT22;11117;48.644;9.006;2024-02-04T10:43:42;9.80;99.90
21906;DHT22;11117;48.644;9.006;2024-02-04T10:48:37;10.30;99.90
21906;DHT22;11117;48.644;9.006;2024-02-04T10:51:03;10.10;99.90
21906;DHT22;11117;48.644;9.006;2024-02-04T10:53:28;10.00;99.90
21906;DHT22;11117;48.644;9.006;2024-02-04T10:55:58;10.00;99.90
21906;DHT22;11117;48.644;9.006;2024-02-04T10:58:27;10.00;99.90
21906;DHT22;11117;48.644;9.006;2024-02-04T11:00:54;9.90;99.90
21906;DHT22;11117;48.644;9.006;2024-02-04T11:03:20;9.80;99.90
21906;DHT22;11117;48.644;9.006;2024-02-04T11:05:46;9.90;99.90
21906;DHT22;11117;48.644;9.006;2024-02-04T11:08:13;10.00;99.90
21906;DHT22;11117;48.644;9.006;2024-02-04T11:10:40;9.90;99.90
21906;DHT22;11117;48.644;9.006;2024-02-04T11:13:06;9.80;99.90
21906;DHT22;11117;48.644;9.006;2024-02-04T11:15:37;9.90;99.90
21906;DHT22;11117;48.644;9.006;2024-02-04T11:20:42;9.90;99.90
21906;DHT22;11117;48.644;9.006;2024-02-04T11:25:57;10.20;99.90
21906;DHT22;11117;48.644;9.006;2024-02-04T11:28:23;10.30;99.90
21906;DHT22;11117;48.644;9.006;2024-02-04T11:30:49;10.30;99.90
21906;DHT22;11117;48.644;9.006;2024-02-04T11:33:18;10.30;99.90
21906;DHT22;11117;48.644;9.006;2024-02-04T11:35:44;10.30;99.90
21906;DHT22;11117;48.644;9.006;2024-02-04T11:38:10;10.40;99.90
21906;DHT22;11117;48.644;9.006;2024-02-04T11:40:37;10.30;99.90
21906;DHT22;11117;48.644;9.006;2024-02-04T11:43:07;10.40;99.90
21906;DHT22;11117;48.644;9.006;2024-02-04T11:45:37;10.40;99.90
21906;DHT22;11117;48.644;9.006;2024-02-04T11:48:03;10.50;99.90
21906;DHT22;11117;48.644;9.006;2024-02-04T11:50:32;10.60;99.90
21906;DHT22;11117;48.644;9.006;2024-02-04T11:53:09;10.80;99.90
21906;DHT22;11117;48.644;9.006;2024-02-04T11:55:35;10.80;99.90
21906;DHT22;11117;48.644;9.006;2024-02-04T11:58:05;10.90;99.90
21906;DHT22;11117;48.644;9.006;2024-02-04T12:00:35;11.00;99.90
21906;DHT22;11117;48.644;9.006;2024-02-04T12:03:01;11.20;99.90
21906;DHT22;11117;48.644;9.006;2024-02-04T12:05:27;11.40;99.90
21906;DHT22;11117;48.644;9.006;2024-02-04T12:07:53;11.40;99.90
21906;DHT22;11117;48.644;9.006;2024-02-04T12:10:19;11.50;99.90
21906;DHT22;11117;48.644;9.006;2024-02-04T12:12:46;11.30;99.90
21906;DHT22;11117;48.644;9.006;2024-02-04T12:15:12;11.40;99.90
21906;DHT22;11117;48.644;9.006;2024-02-04T12:17:38;11.20;99.90
21906;DHT22;11117;48.644;9.006;2024-02-04T12:20:04;11.00;99.90
21906;DHT22;11117;48.644;9.006;2024-02-04T12:22:30;11.10;99.90
21906;DHT22;11117;48.644;9.006;2024-02-04T12:24:56;11.00;99.90
21906;DHT22;11117;48.644;9.006;2024-02-04T12:27:22;10.90;99.90
21906;DHT22;11117;48.644;9.006;2024-02-04T12:29:51;10.90;99.90
21906;DHT22;11117;48.644;9.006;2024-02-04T12:32:17;10.90;99.90
21906;DHT22;11117;48.644;9.006;2024-02-04T12:34:48;10.90;99.90
21906;DHT22;11117;48.644;9.006;2024-02-04T12:37:14;11.10;99.90
21906;DHT22;11117;48.644;9.006;2024-02-04T12:39:42;10.80;99.90
21906;DHT22;11117;48.644;9.006;2024-02-04T12:42:07;10.70;99.90
21906;DHT22;11117;48.644;9.006;2024-02-04T12:44:33;10.60;99.90
21906;DHT22;11117;48.644;9.006;2024-02-04T12:46:59;10.60;99.90
21906;DHT22;11117;48.644;9.006;2024-02-04T12:49:24;10.50;99.90
21906;DHT22;11117;48.644;9.006;2024-02-04T12:51:50;10.50;99.90
21906;DHT22;11117;48.644;9.006;2024-02-04T12:54:16;10.70;99.90
21906;DHT22;11117;48.644;9.006;2024-02-04T12:56:52;10.80;99.90
21906;DHT22;11117;48.644;9.006;2024-02-04T12:59:29;11.00;99.90
21906;DHT22;11117;48.644;9.006;2024-02-04T13:02:01;11.10;99.90
21906;DHT22;11117;48.644;9.006;2024-02-04T13:04:36;10.90;99.90
21906;DHT22;11117;48.644;9.006;2024-02-04T13:07:09;10.70;99.90
21906;DHT22;11117;48.644;9.006;2024-02-04T13:09:36;10.70;99.90
21906;DHT22;11117;48.644;9.006;2024-02-04T13:12:05;10.60;99.90
21906;DHT22;11117;48.644;9.006;2024-02-04T13:14:31;10.60;99.90
21906;DHT22;11117;48.644;9.006;2024-02-04T13:16:57;10.80;99.90
21906;DHT22;11117;48.644;9.006;2024-02-04T13:19:23;10.80;99.90
21906;DHT22;11117;48.644;9.006;2024-02-04T13:21:48;10.60;99.90
21906;DHT22;11117;48.644;9.006;2024-02-04T13:24:14;10.70;99.90
21906;DHT22;11117;48.644;9.006;2024-02-04T13:26:40;10.80;99.90
21906;DHT22;11117;48.644;9.006;2024-02-04T13:29:05;10.80;99.90
21906;DHT22;11117;48.644;9.006;2024-02-04T13:31:31;10.90;99.90
21906;DHT22;11117;48.644;9.006;2024-02-04T13:33:57;11.00;99.90
21906;DHT22;11117;48.644;9.006;2024-02-04T13:36:23;11.10;99.90
21906;DHT22;11117;48.644;9.006;2024-02-04T13:38:48;10.80;99.90
21906;DHT22;11117;48.644;9.006;2024-02-04T13:41:14;10.80;99.90
21906;DHT22;11117;48.644;9.006;2024-02-04T13:43:39;10.70;99.90
21906;DHT22;11117;48.644;9.006;2024-02-04T13:46:05;10.70;99.90
21906;DHT22;11117;48.644;9.006;2024-02-04T13:48:31;10.70;99.90
21906;DHT22;11117;48.644;9.006;2024-02-04T13:50:56;10.70;99.90
21906;DHT22;11117;48.644;9.006;2024-02-04T13:53:22;10.80;99.90
21906;DHT22;11117;48.644;9.006;2024-02-04T13:55:50;10.60;99.90
21906;DHT22;11117;48.644;9.006;2024-02-04T13:58:16;10.50;99.90
21906;DHT22;11117;48.644;9.006;2024-02-04T14:00:41;10.60;99.90
21906;DHT22;11117;48.644;9.006;2024-02-04T14:03:07;10.40;99.90
21906;DHT22;11117;48.644;9.006;2024-02-04T14:05:33;10.50;99.90
21906;DHT22;11117;48.644;9.006;2024-02-04T14:07:58;10.50;99.90
21906;DHT22;11117;48.644;9.006;2024-02-04T14:10:24;10.40;99.90
21906;DHT22;11117;48.644;9.006;2024-02-04T14:12:49;10.30;99.90
21906;DHT22;11117;48.644;9.006;2024-02-04T14:15:15;10.20;99.90
21906;DHT22;11117;48.644;9.006;2024-02-04T14:17:40;10.20;99.90
21906;DHT22;11117;48.644;9.006;2024-02-04T14:20:07;10.20;99.90
21906;DHT22;11117;48.644;9.006;2024-02-04T14:22:32;10.30;99.90
21906;DHT22;11117;48.644;9.006;2024-02-04T14:24:58;10.10;99.90
21906;DHT22;11117;48.644;9.006;2024-02-04T14:27:24;10.10;99.90
21906;DHT22;11117;48.644;9.006;2024-02-04T14:29:49;10.10;99.90
21906;DHT22;11117;48.644;9.006;2024-02-04T14:32:15;9.90;99.90
21906;DHT22;11117;48.644;9.006;2024-02-04T14:34:45;9.90;99.90
21906;DHT22;11117;48.644;9.006;2024-02-04T14:37:11;9.80;99.90
21906;DHT22;11117;48.644;9.006;2024-02-04T14:39:36;9.70;99.90
21906;DHT22;11117;48.644;9.006;2024-02-04T14:42:02;9.70;99.90
21906;DHT22;11117;48.644;9.006;2024-02-04T14:44:29;9.70;99.90
21906;DHT22;11117;48.644;9.006;2024-02-04T14:46:54;9.60;99.90
21906;DHT22;11117;48.644;9.006;2024-02-04T14:49:20;9.60;99.90
21906;DHT22;11117;48.644;9.006;2024-02-04T14:51:45;9.60;99.90
21906;DHT22;11117;48.644;9.006;2024-02-04T14:54:11;9.70;99.90
21906;DHT22;11117;48.644;9.006;2024-02-04T14:56:38;9.60;99.90
21906;DHT22;11117;48.644;9.006;2024-02-04T14:59:03;9.50;99.90
21906;DHT22;11117;48.644;9.006;2024-02-04T15:01:29;9.50;99.90
21906;DHT22;11117;48.644;9.006;2024-02-04T15:03:54;9.40;99.90
21906;DHT22;11117;48.644;9.006;2024-02-04T15:06:20;9.30;99.90
21906;DHT22;11117;48.644;9.006;2024-02-04T15:08:46;9.30;99.90
21906;DHT22;11117;48.644;9.006;2024-02-04T15:11:11;9.20;99.90
21906;DHT22;11117;48.644;9.006;2024-02-04T15:13:37;9.30;99.90
21906;DHT22;11117;48.644;9.006;2024-02-04T15:16:03;9.30;99.90
21906;DHT22;11117;48.644;9.006;2024-02-04T15:18:28;9.20;99.90
21906;DHT22;11117;48.644;9.006;2024-02-04T15:20:54;9.50;99.90
21906;DHT22;11117;48.644;9.006;2024-02-04T15:23:20;9.40;99.90
21906;DHT22;11117;48.644;9.006;2024-02-04T15:25:46;9.20;99.90
21906;DHT22;11117;48.644;9.006;2024-02-04T15:28:12;9.20;99.90
21906;DHT22;11117;48.644;9.006;2024-02-04T15:30:38;9.20;99.90
21906;DHT22;11117;48.644;9.006;2024-02-04T15:33:03;9.10;99.90
21906;DHT22;11117;48.644;9.006;2024-02-04T15:35:29;9.00;99.90
21906;DHT22;11117;48.644;9.006;2024-02-04T15:37:55;9.00;99.90
21906;DHT22;11117;48.644;9.006;2024-02-04T15:40:21;9.00;99.90
21906;DHT22;11117;48.644;9.006;2024-02-04T15:42:46;9.00;99.90
21906;DHT22;11117;48.644;9.006;2024-02-04T15:45:12;9.00;99.90